Tropical Cyclones
[Index]
Season 2020-2021 Tropical Cyclone 202021_02 Track Map
Season 2020-2021 Summaries: [BoM-AU]
<<- Previous TC | BoM 2020-2021 Season | Next TC ->>

click for intensity scale information  Lat/long Grid: Show Hide

 Date Labels: Show Hide

Bureau of Meteorology Tropical Cyclone Data

Name: 202021_02

04 Dec 2020 06:00 UTC to 11 Dec 2020 06:00 UTC

    date/time    lat    long    hPa   cat  kts
2020-12-04 06    8.5   105.7   1002         20          
2020-12-05 18    8.7   106.2   1002         20          
2020-12-06 00    8.6   106.2   1002         25          
2020-12-06 06    9.0   107.1   1000         30          
2020-12-06 18   10.1   108.3   1002         30          
2020-12-07 00   10.1   108.1   1002         30          
2020-12-07 06   10.4   108.1   1000         30          
2020-12-07 18   11.0   108.2   1000         30          
2020-12-08 00   11.2   107.7   1001         30          
2020-12-08 06   11.2   107.6    997         30          
2020-12-08 12   11.0   108.1    994    1    35          
2020-12-08 18   10.9   108.6    991    1    40          
2020-12-09 00   11.1   109.1    991    1    40          
2020-12-09 06   11.6   109.9    990    1    40          
2020-12-09 12   12.4   110.7    990    1    40          
2020-12-09 18   13.3   111.0    995    1    35          
2020-12-10 00   14.2   111.5    995    1    35          
2020-12-10 06   14.7   112.4    998         30          
2020-12-10 12   15.6   113.9    999         30          
2020-12-10 18   16.9   115.5    995    1    35          
2020-12-11 00   19.4   117.1    992    1    45          
2020-12-11 03   20.4   118.2    995    1    40          
2020-12-11 06   21.2   119.1    998         30          
Winds are 10-min average.

Tropical cyclone tracks developed by Michael Bath using data from the Bureau of Meteorology and Google Maps.


Document: tropical_cyclone_202021_02.htm
Updated: 20 April 2021
[Australian Severe Weather index] [Copyright Notice] [Email Contacts] [Search This Site] [Privacy Policy]


Main Index Home Page Stock Weather Photos Extreme Storms Discussion Storm News and Storm Chasing Reports Tropical Cyclones / Hurricanes / Typhoons Weather Data and Links Wild Fires / Bushfires Weather Observation Techniques Weather Picture Catalogue Tornado Pictures and Reports Stock Video Footage and DVDs for sale